SBPB/PHB METAR and TAF weather

Enter ICAO airport designator
Station Type Date Time Source
SBPB METAR 2019/02/20 17:00 UTC NOAA

SBPB 201700Z 04008KT 9999 BKN017 34/22 Q1010


Station Type Date Time Source
SBPB Decoded METAR 2019/02/20 17:00 UTC NOAA

Parnaiba Aeroporto , Brazil (SBPB) 02-55S 041-45W
Feb 20, 2019 - 12:00 PM EST / 2019.02.20 1700 UTC
Wind: from the NE (040 degrees) at 9 MPH (8 KT):0
Visibility: greater than 7 mile(s):0
Sky conditions: mostly cloudy
Temperature: 93 F (34 C)
Heat index: 100.0 F (37.8 C):1
Dew Point: 71 F (22 C)
Relative Humidity: 49%
Pressure (altimeter): 29.83 in. Hg (1010 hPa)
ob: SBPB 201700Z 04008KT 9999 BKN017 34/22 Q1010
cycle: 17

Station Type Date Time Source
SBPB TAF 2019/02/20 18:33 UTC NOAA

TAF SBPB 201530Z 2018/2118 07007KT 8000 SCT020 TN25/2108Z TX29/2116Z PROB30
TEMPO 2100/2105 6000 SHRA BKN015
RMK PCH


Example: see airport list